Time;durP1;ratioP1;P1;durP2;ratioP2;P2;SDS_P1;SDS_P2;PMS_P1;PMS_P2;Temp;Humidity;BMP_temperature;BMP_pressure;BME280_temperature;BME280_humidity;BME280_pressure;Samples;Min_cycle;Max_cycle;Signal;HPM_P1;HPM_P2
2023/08/02 00:00:19;;;;;;;3.30;1.77;;;;;;;;;;5019755;28;20073;-79
2023/08/02 00:02:46;;;;;;;3.80;1.50;;;;;;;;;;5014252;28;20564;-80
2023/08/02 00:05:12;;;;;;;3.60;1.55;;;;;;;;;;5020097;28;20421;-79
2023/08/02 00:07:39;;;;;;;3.03;1.55;;;;;;;;;;5015236;28;20130;-79
2023/08/02 00:10:06;;;;;;;3.63;1.60;;;;;;;;;;5019689;28;20046;-79
2023/08/02 00:12:34;;;;;;;4.10;1.52;;;;;;;;;;5020093;28;20045;-80
2023/08/02 00:15:01;;;;;;;4.20;1.60;;;;;;;;;;5019108;28;20042;-80
2023/08/02 00:17:27;;;;;;;3.17;1.50;;;;;;;;;;5019759;28;20105;-79
2023/08/02 00:19:54;;;;;;;3.63;1.58;;;;;;;;;;5019902;28;20532;-79
2023/08/02 00:22:20;;;;;;;2.90;1.77;;;;;;;;;;5020755;28;20056;-79
2023/08/02 00:24:47;;;;;;;3.90;1.90;;;;;;;;;;5019644;28;20235;-80
2023/08/02 00:27:13;;;;;;;4.20;1.90;;;;;;;;;;5019910;28;20050;-79
2023/08/02 00:29:41;;;;;;;3.58;1.65;;;;;;;;;;5022922;28;20485;-79
2023/08/02 00:32:08;;;;;;;3.67;1.70;;;;;;;;;;5020506;28;20142;-79
2023/08/02 00:34:35;;;;;;;4.63;1.70;;;;;;;;;;5016617;28;20196;-81
2023/08/02 00:37:01;;;;;;;3.08;1.50;;;;;;;;;;5017409;28;20046;-79
2023/08/02 00:39:28;;;;;;;2.80;1.40;;;;;;;;;;5017096;28;20509;-78
2023/08/02 00:41:55;;;;;;;3.80;1.70;;;;;;;;;;5017099;28;20045;-79
2023/08/02 00:44:21;;;;;;;3.53;1.67;;;;;;;;;;5017651;28;20106;-80
2023/08/02 00:46:49;;;;;;;3.42;1.67;;;;;;;;;;5014826;28;20060;-79
2023/08/02 00:49:16;;;;;;;3.03;1.60;;;;;;;;;;5016710;28;20056;-79
2023/08/02 00:51:43;;;;;;;3.42;1.58;;;;;;;;;;5016461;28;20049;-79
2023/08/02 00:54:09;;;;;;;4.03;1.67;;;;;;;;;;5017572;28;20041;-79
2023/08/02 00:56:36;;;;;;;3.65;1.83;;;;;;;;;;5016328;28;20042;-78
2023/08/02 00:59:03;;;;;;;4.80;1.85;;;;;;;;;;5008162;28;20129;-80
2023/08/02 01:01:30;;;;;;;3.78;1.52;;;;;;;;;;5015791;28;20050;-79
2023/08/02 01:03:58;;;;;;;4.35;2.08;;;;;;;;;;5016063;28;20124;-80
2023/08/02 01:06:30;;;;;;;3.75;1.90;;;;;;;;;;5017411;28;20171;-80
2023/08/02 01:09:02;;;;;;;3.67;2.10;;;;;;;;;;5017284;28;20057;-79
2023/08/02 01:11:35;;;;;;;3.40;1.60;;;;;;;;;;5016195;28;20137;-78
2023/08/02 01:14:06;;;;;;;3.75;1.92;;;;;;;;;;5016119;28;20133;-78
2023/08/02 01:16:33;;;;;;;3.40;2.05;;;;;;;;;;5016974;28;20046;-78
2023/08/02 01:19:01;;;;;;;5.68;1.98;;;;;;;;;;5015896;28;20057;-79
2023/08/02 01:21:29;;;;;;;3.85;1.83;;;;;;;;;;5016250;28;20046;-77
2023/08/02 01:23:56;;;;;;;4.55;2.35;;;;;;;;;;5014746;28;20064;-78
2023/08/02 01:26:23;;;;;;;2.72;1.55;;;;;;;;;;5014282;28;20527;-78
2023/08/02 01:28:55;;;;;;;4.28;1.98;;;;;;;;;;5014804;28;20054;-79
2023/08/02 01:31:22;;;;;;;3.85;1.63;;;;;;;;;;5013872;28;20050;-78
2023/08/02 01:33:53;;;;;;;3.85;1.65;;;;;;;;;;5013765;28;20519;-77
2023/08/02 01:36:19;;;;;;;3.97;1.60;;;;;;;;;;5014730;28;20046;-77
2023/08/02 01:38:48;;;;;;;4.05;1.60;;;;;;;;;;5013696;28;20046;-79
2023/08/02 01:41:14;;;;;;;4.80;1.80;;;;;;;;;;5014079;28;20077;-80
2023/08/02 01:43:41;;;;;;;3.75;1.98;;;;;;;;;;5013759;28;20496;-80
2023/08/02 01:46:07;;;;;;;3.33;1.77;;;;;;;;;;5018078;28;20042;-80
2023/08/02 01:48:34;;;;;;;4.15;1.90;;;;;;;;;;5021656;28;20493;-78
2023/08/02 01:51:00;;;;;;;6.47;2.00;;;;;;;;;;5020704;28;20370;-78
2023/08/02 01:53:27;;;;;;;3.40;1.85;;;;;;;;;;5020079;28;20508;-80
2023/08/02 01:55:55;;;;;;;4.32;1.67;;;;;;;;;;5016184;28;20483;-79
2023/08/02 01:58:21;;;;;;;2.80;1.52;;;;;;;;;;5013178;28;20049;-79
2023/08/02 02:00:48;;;;;;;3.50;1.67;;;;;;;;;;5012411;28;20528;-79
2023/08/02 02:03:14;;;;;;;3.35;1.70;;;;;;;;;;5012351;28;20049;-79
2023/08/02 02:05:41;;;;;;;3.35;1.60;;;;;;;;;;5013143;28;20058;-77
2023/08/02 02:08:07;;;;;;;3.17;1.80;;;;;;;;;;5013503;28;20204;-79
2023/08/02 02:10:34;;;;;;;4.10;1.83;;;;;;;;;;5015105;28;20428;-79
2023/08/02 02:13:02;;;;;;;3.10;1.60;;;;;;;;;;5015505;28;20106;-79
2023/08/02 02:15:28;;;;;;;4.63;1.85;;;;;;;;;;5015341;28;20042;-80
2023/08/02 02:17:55;;;;;;;3.58;2.00;;;;;;;;;;5014666;28;20133;-79
2023/08/02 02:20:21;;;;;;;5.20;2.63;;;;;;;;;;5014683;28;20397;-79
2023/08/02 02:22:48;;;;;;;4.20;2.53;;;;;;;;;;5020244;28;20046;-78
2023/08/02 02:25:15;;;;;;;4.00;2.47;;;;;;;;;;5032455;28;20081;-80
2023/08/02 02:27:41;;;;;;;5.75;2.97;;;;;;;;;;5036482;28;20088;-80
2023/08/02 02:30:10;;;;;;;5.35;2.78;;;;;;;;;;5036902;28;20050;-80
2023/08/02 02:32:37;;;;;;;5.40;3.42;;;;;;;;;;5036320;28;20065;-81
2023/08/02 02:35:04;;;;;;;5.38;3.47;;;;;;;;;;5036143;28;20045;-80
2023/08/02 02:37:31;;;;;;;6.93;3.38;;;;;;;;;;5031410;28;20106;-80
2023/08/02 02:39:57;;;;;;;6.15;3.47;;;;;;;;;;5016768;28;20416;-78
2023/08/02 02:42:24;;;;;;;12.85;3.88;;;;;;;;;;5016596;28;20050;-79
2023/08/02 02:44:50;;;;;;;6.47;3.63;;;;;;;;;;5016669;28;20088;-76
2023/08/02 02:47:18;;;;;;;6.53;3.30;;;;;;;;;;5014891;28;20592;-77
2023/08/02 02:49:45;;;;;;;6.43;3.47;;;;;;;;;;5014796;28;20049;-77
2023/08/02 02:52:11;;;;;;;6.85;3.17;;;;;;;;;;5014703;28;20050;-78
2023/08/02 02:54:38;;;;;;;5.45;3.13;;;;;;;;;;5014128;28;20050;-78
2023/08/02 02:57:05;;;;;;;5.45;3.13;;;;;;;;;;5015827;28;20056;-78
2023/08/02 02:59:32;;;;;;;6.60;2.72;;;;;;;;;;5026745;28;20275;-79
2023/08/02 03:01:59;;;;;;;5.18;3.05;;;;;;;;;;5034143;28;20050;-80
2023/08/02 03:04:27;;;;;;;5.55;3.53;;;;;;;;;;5034069;28;20056;-79
2023/08/02 03:06:54;;;;;;;6.60;3.08;;;;;;;;;;5034348;28;20026;-79
2023/08/02 03:09:21;;;;;;;5.63;3.15;;;;;;;;;;5029908;28;20077;-80
2023/08/02 03:11:47;;;;;;;6.80;3.28;;;;;;;;;;5015889;28;20057;-78
2023/08/02 03:14:14;;;;;;;5.90;3.22;;;;;;;;;;5013667;28;20049;-78
2023/08/02 03:16:42;;;;;;;6.13;3.20;;;;;;;;;;5013153;28;20064;-78
2023/08/02 03:19:10;;;;;;;6.00;3.08;;;;;;;;;;5012799;28;20431;-78
2023/08/02 03:21:38;;;;;;;7.25;4.22;;;;;;;;;;5013438;28;20065;-78
2023/08/02 03:24:04;;;;;;;4.93;3.05;;;;;;;;;;5013705;28;20416;-78
2023/08/02 03:26:31;;;;;;;6.03;2.88;;;;;;;;;;5013889;28;20056;-77
2023/08/02 03:28:58;;;;;;;4.38;2.42;;;;;;;;;;5006931;28;20045;-79
2023/08/02 03:31:24;;;;;;;5.10;2.70;;;;;;;;;;5013782;28;20120;-78
2023/08/02 03:33:51;;;;;;;5.57;3.08;;;;;;;;;;5013140;28;20046;-78
2023/08/02 03:36:17;;;;;;;6.05;3.30;;;;;;;;;;5013718;28;20048;-78
2023/08/02 03:38:45;;;;;;;6.03;3.45;;;;;;;;;;5013255;28;20133;-79
2023/08/02 03:41:12;;;;;;;6.57;3.33;;;;;;;;;;5011943;28;20519;-76
2023/08/02 03:43:39;;;;;;;6.07;3.72;;;;;;;;;;5013032;28;20042;-79
2023/08/02 03:46:05;;;;;;;5.97;3.13;;;;;;;;;;5012982;28;20042;-78
2023/08/02 03:48:32;;;;;;;5.97;2.58;;;;;;;;;;5012312;28;20049;-78
2023/08/02 03:50:59;;;;;;;5.78;2.55;;;;;;;;;;5012789;28;20060;-78
2023/08/02 03:53:26;;;;;;;6.28;2.83;;;;;;;;;;5013790;28;20508;-78
2023/08/02 03:55:54;;;;;;;5.88;2.97;;;;;;;;;;5015388;28;20492;-79
2023/08/02 03:58:21;;;;;;;4.18;2.40;;;;;;;;;;5016045;28;20046;-79
2023/08/02 04:00:47;;;;;;;5.32;2.65;;;;;;;;;;5016251;28;20050;-79
2023/08/02 04:03:14;;;;;;;6.45;3.40;;;;;;;;;;5019604;28;20520;-78
2023/08/02 04:05:41;;;;;;;5.63;3.40;;;;;;;;;;5019161;28;20048;-78
2023/08/02 04:08:08;;;;;;;5.63;3.75;;;;;;;;;;5016130;28;20505;-77
2023/08/02 04:10:36;;;;;;;6.63;3.35;;;;;;;;;;5015917;28;20076;-77
2023/08/02 04:13:04;;;;;;;6.53;3.53;;;;;;;;;;5016159;28;20129;-79
2023/08/02 04:15:31;;;;;;;4.70;2.67;;;;;;;;;;5015328;28;20046;-79
2023/08/02 04:17:58;;;;;;;5.80;2.53;;;;;;;;;;5016281;28;20073;-79
2023/08/02 04:20:24;;;;;;;4.78;2.35;;;;;;;;;;5016169;28;20084;-79
2023/08/02 04:22:51;;;;;;;4.80;2.30;;;;;;;;;;5015736;28;20505;-78
2023/08/02 04:25:17;;;;;;;6.35;2.95;;;;;;;;;;5016066;28;20042;-79
2023/08/02 04:27:44;;;;;;;5.05;2.50;;;;;;;;;;5016269;28;20049;-78
2023/08/02 04:30:13;;;;;;;6.18;2.72;;;;;;;;;;5015747;28;20080;-76
2023/08/02 04:32:39;;;;;;;4.38;2.33;;;;;;;;;;5015512;28;20141;-78
2023/08/02 04:35:06;;;;;;;4.75;2.53;;;;;;;;;;5015304;28;20049;-78
2023/08/02 04:37:33;;;;;;;5.20;2.70;;;;;;;;;;5016947;28;20547;-79
2023/08/02 04:39:59;;;;;;;4.93;2.80;;;;;;;;;;5017075;28;20148;-79
2023/08/02 04:42:26;;;;;;;5.38;2.85;;;;;;;;;;5016347;28;20046;-79
2023/08/02 04:44:53;;;;;;;5.68;2.70;;;;;;;;;;5016308;28;20416;-79
2023/08/02 04:47:21;;;;;;;5.40;2.70;;;;;;;;;;5016158;28;20215;-77
2023/08/02 04:49:47;;;;;;;5.68;2.95;;;;;;;;;;5015038;28;20046;-79
2023/08/02 04:52:14;;;;;;;5.55;2.67;;;;;;;;;;5016468;28;20065;-79
2023/08/02 04:54:40;;;;;;;5.97;2.47;;;;;;;;;;5017377;28;20496;-79
2023/08/02 04:57:07;;;;;;;4.88;2.30;;;;;;;;;;5016878;28;20080;-79
2023/08/02 04:59:34;;;;;;;6.47;2.90;;;;;;;;;;5017210;28;20046;-79
2023/08/02 05:02:00;;;;;;;4.22;2.50;;;;;;;;;;5016692;28;20056;-79
2023/08/02 05:04:28;;;;;;;5.32;2.63;;;;;;;;;;5017844;28;20053;-79
2023/08/02 05:06:55;;;;;;;4.25;2.20;;;;;;;;;;5018070;28;20077;-79
2023/08/02 05:09:22;;;;;;;4.25;2.38;;;;;;;;;;5013067;28;20331;-78
2023/08/02 05:11:48;;;;;;;6.40;2.30;;;;;;;;;;5015084;28;20092;-79
2023/08/02 05:14:15;;;;;;;4.70;2.38;;;;;;;;;;5016182;28;20424;-79
2023/08/02 05:16:41;;;;;;;4.60;2.53;;;;;;;;;;5016858;28;20121;-79
2023/08/02 05:19:08;;;;;;;4.43;2.45;;;;;;;;;;5016961;28;20057;-80
2023/08/02 05:21:36;;;;;;;4.07;2.40;;;;;;;;;;5016445;28;20077;-80
2023/08/02 05:24:02;;;;;;;5.43;2.30;;;;;;;;;;5016542;28;20138;-80
2023/08/02 05:26:29;;;;;;;5.40;2.22;;;;;;;;;;5015283;28;20497;-79
2023/08/02 05:28:55;;;;;;;4.78;2.47;;;;;;;;;;5015551;28;20056;-79
2023/08/02 05:31:22;;;;;;;4.25;1.98;;;;;;;;;;5017617;28;20061;-79
2023/08/02 05:33:48;;;;;;;5.53;2.33;;;;;;;;;;5016945;28;20074;-80
2023/08/02 05:36:15;;;;;;;4.95;2.17;;;;;;;;;;5017166;28;20196;-79
2023/08/02 05:38:43;;;;;;;4.53;2.03;;;;;;;;;;5017341;28;20448;-79
2023/08/02 05:41:10;;;;;;;4.65;2.10;;;;;;;;;;5017412;28;20053;-80
2023/08/02 05:43:41;;;;;;;3.70;1.70;;;;;;;;;;5017142;28;20092;-79
2023/08/02 05:46:08;;;;;;;3.13;1.75;;;;;;;;;;5013922;28;20038;-80
2023/08/02 05:48:34;;;;;;;4.18;2.20;;;;;;;;;;5012850;28;20072;-79
2023/08/02 05:51:01;;;;;;;4.32;2.00;;;;;;;;;;5016615;28;20050;-78
2023/08/02 05:53:27;;;;;;;3.80;2.00;;;;;;;;;;5035372;22;20050;-79
2023/08/02 05:55:57;;;;;;;4.32;1.90;;;;;;;;;;5008464;28;20050;-78
2023/08/02 05:58:24;;;;;;;4.93;1.98;;;;;;;;;;5013690;28;20046;-78
2023/08/02 06:00:51;;;;;;;4.45;2.10;;;;;;;;;;5009528;28;20048;-78
2023/08/02 06:03:17;;;;;;;5.30;1.98;;;;;;;;;;5007796;28;20432;-78
2023/08/02 06:05:44;;;;;;;4.43;2.15;;;;;;;;;;5008262;28;20050;-77
2023/08/02 06:08:10;;;;;;;5.65;2.72;;;;;;;;;;5005748;28;20042;-77
2023/08/02 06:10:37;;;;;;;4.85;2.08;;;;;;;;;;5010346;28;20136;-77
2023/08/02 06:13:05;;;;;;;3.80;2.03;;;;;;;;;;5000188;28;20492;-78
2023/08/02 06:15:32;;;;;;;4.85;2.13;;;;;;;;;;5018636;28;20493;-78
2023/08/02 06:17:58;;;;;;;3.88;1.85;;;;;;;;;;5004003;28;20045;-78
2023/08/02 06:20:25;;;;;;;4.00;1.95;;;;;;;;;;5009432;28;20073;-78
2023/08/02 06:22:51;;;;;;;4.57;2.05;;;;;;;;;;5004334;28;20042;-78
2023/08/02 06:25:18;;;;;;;5.57;2.30;;;;;;;;;;5003317;28;20045;-77
2023/08/02 06:27:45;;;;;;;3.47;1.75;;;;;;;;;;5014091;28;20134;-76
2023/08/02 06:30:15;;;;;;;4.63;2.42;;;;;;;;;;5013699;28;20124;-77
2023/08/02 06:32:41;;;;;;;4.75;2.00;;;;;;;;;;5008507;28;20042;-78
2023/08/02 06:35:09;;;;;;;5.45;2.13;;;;;;;;;;5013762;28;20038;-77
2023/08/02 06:37:36;;;;;;;4.53;2.00;;;;;;;;;;5012641;28;20563;-78
2023/08/02 06:40:03;;;;;;;4.47;1.90;;;;;;;;;;5012903;28;20495;-78
2023/08/02 06:42:29;;;;;;;4.30;1.92;;;;;;;;;;5013674;28;20045;-77
2023/08/02 06:44:57;;;;;;;5.20;2.00;;;;;;;;;;5014823;28;20508;-78
2023/08/02 06:47:25;;;;;;;6.13;2.30;;;;;;;;;;5019606;28;20054;-77
2023/08/02 06:49:52;;;;;;;4.07;1.90;;;;;;;;;;5026178;28;20046;-77
2023/08/02 06:52:18;;;;;;;4.43;2.22;;;;;;;;;;5025118;28;20052;-77
2023/08/02 06:54:45;;;;;;;4.05;2.10;;;;;;;;;;5022555;28;20054;-77
2023/08/02 06:57:12;;;;;;;4.65;2.53;;;;;;;;;;5018524;28;20439;-78
2023/08/02 06:59:38;;;;;;;5.35;3.05;;;;;;;;;;5007694;28;20046;-77
2023/08/02 07:02:06;;;;;;;5.32;2.22;;;;;;;;;;5007518;28;20042;-76
2023/08/02 07:04:34;;;;;;;4.60;2.67;;;;;;;;;;5016493;28;20081;-77
2023/08/02 07:07:00;;;;;;;5.68;2.70;;;;;;;;;;5018684;28;20038;-76
2023/08/02 07:09:29;;;;;;;5.72;3.83;;;;;;;;;;5018769;28;20070;-76
2023/08/02 07:11:56;;;;;;;5.00;2.47;;;;;;;;;;5019826;28;20057;-76
2023/08/02 07:14:23;;;;;;;6.25;2.60;;;;;;;;;;5020552;28;20049;-76
2023/08/02 07:16:49;;;;;;;4.90;2.80;;;;;;;;;;5007456;28;20043;-77
2023/08/02 07:19:16;;;;;;;6.82;2.97;;;;;;;;;;5017265;28;20369;-79
2023/08/02 07:21:43;;;;;;;6.18;3.20;;;;;;;;;;5022751;28;20045;-78
2023/08/02 07:24:10;;;;;;;4.97;2.53;;;;;;;;;;5019002;28;20506;-79
2023/08/02 07:26:37;;;;;;;6.85;2.90;;;;;;;;;;5021729;28;20053;-79
2023/08/02 07:29:03;;;;;;;6.95;3.25;;;;;;;;;;5015177;28;20130;-77
2023/08/02 07:31:30;;;;;;;6.90;2.95;;;;;;;;;;5012255;28;20118;-78
2023/08/02 07:33:56;;;;;;;6.00;2.70;;;;;;;;;;5015452;28;20405;-77
2023/08/02 07:36:23;;;;;;;4.93;2.58;;;;;;;;;;5010280;28;20416;-78
2023/08/02 07:38:51;;;;;;;5.30;2.88;;;;;;;;;;5019609;28;20082;-77
2023/08/02 07:41:18;;;;;;;7.35;2.97;;;;;;;;;;5016663;28;20481;-77
2023/08/02 07:43:44;;;;;;;5.32;2.65;;;;;;;;;;5011332;28;20074;-77
2023/08/02 07:46:18;;;;;;;4.53;2.08;;;;;;;;;;5009908;28;20078;-77
2023/08/02 07:48:44;;;;;;;4.65;2.30;;;;;;;;;;5012230;28;20045;-77
2023/08/02 07:51:11;;;;;;;5.15;2.38;;;;;;;;;;5011873;28;20045;-78
2023/08/02 07:53:37;;;;;;;5.70;2.15;;;;;;;;;;5006275;28;20096;-79
2023/08/02 07:56:07;;;;;;;5.85;2.60;;;;;;;;;;5011934;28;20397;-77
2023/08/02 07:58:33;;;;;;;5.43;2.72;;;;;;;;;;5007267;28;20042;-77
2023/08/02 08:01:05;;;;;;;5.45;3.03;;;;;;;;;;5011406;28;20042;-78
2023/08/02 08:03:32;;;;;;;4.97;2.92;;;;;;;;;;5006994;28;20054;-78
2023/08/02 08:05:58;;;;;;;5.75;3.20;;;;;;;;;;5009063;28;20076;-79
2023/08/02 08:08:25;;;;;;;5.05;2.95;;;;;;;;;;5017424;28;20042;-78
2023/08/02 08:10:52;;;;;;;6.18;2.65;;;;;;;;;;5009794;28;20105;-78
2023/08/02 08:13:20;;;;;;;5.65;3.00;;;;;;;;;;5014096;28;20257;-79
2023/08/02 08:15:47;;;;;;;6.93;3.22;;;;;;;;;;5010077;28;20046;-77
2023/08/02 08:18:14;;;;;;;6.85;3.17;;;;;;;;;;5012777;28;20044;-78
2023/08/02 08:20:40;;;;;;;4.38;2.45;;;;;;;;;;5003834;28;20053;-78
2023/08/02 08:23:07;;;;;;;6.80;3.33;;;;;;;;;;5012393;28;20068;-80
2023/08/02 08:25:34;;;;;;;169.52;81.63;;;;;;;;;;5020538;28;20042;-81
2023/08/02 08:28:00;;;;;;;14.68;6.78;;;;;;;;;;5019762;28;20042;-78
2023/08/02 08:30:28;;;;;;;25.70;13.02;;;;;;;;;;5014822;28;20046;-77
2023/08/02 08:32:55;;;;;;;15.50;8.80;;;;;;;;;;5002384;28;20064;-77
2023/08/02 08:35:22;;;;;;;15.50;8.65;;;;;;;;;;5009736;28;20068;-77
2023/08/02 08:37:51;;;;;;;18.42;8.02;;;;;;;;;;5011197;28;20041;-77
2023/08/02 08:40:19;;;;;;;8.40;4.40;;;;;;;;;;5009222;28;20045;-77
2023/08/02 08:42:49;;;;;;;6.95;4.38;;;;;;;;;;5004737;28;20504;-77
2023/08/02 08:45:18;;;;;;;9.02;4.75;;;;;;;;;;5010490;28;20069;-77
2023/08/02 08:47:46;;;;;;;9.90;5.00;;;;;;;;;;5006562;28;20423;-78
2023/08/02 08:50:13;;;;;;;6.72;3.42;;;;;;;;;;5008279;28;20046;-77
2023/08/02 08:52:41;;;;;;;7.00;3.28;;;;;;;;;;5006161;28;20049;-77
2023/08/02 08:55:09;;;;;;;6.40;3.22;;;;;;;;;;5004388;28;20038;-77
2023/08/02 08:57:36;;;;;;;7.25;3.72;;;;;;;;;;5006014;28;20053;-76
2023/08/02 09:00:04;;;;;;;8.65;3.42;;;;;;;;;;5003669;28;20113;-77
2023/08/02 09:02:32;;;;;;;4.88;2.35;;;;;;;;;;5007249;28;20042;-76
2023/08/02 09:05:03;;;;;;;4.93;3.03;;;;;;;;;;5005732;28;20166;-78
2023/08/02 09:07:30;;;;;;;5.55;3.08;;;;;;;;;;5011803;28;20042;-78
2023/08/02 09:09:56;;;;;;;6.40;2.75;;;;;;;;;;5011052;28;20060;-78
2023/08/02 09:12:24;;;;;;;4.70;2.75;;;;;;;;;;5007322;28;20057;-77
2023/08/02 09:15:01;;;;;;;6.45;3.30;;;;;;;;;;5006910;28;20054;-77
2023/08/02 09:17:27;;;;;;;7.05;2.83;;;;;;;;;;5007708;28;20046;-77
2023/08/02 09:20:09;;;;;;;5.05;2.50;;;;;;;;;;5008590;28;20492;-77
2023/08/02 09:22:36;;;;;;;4.53;2.30;;;;;;;;;;4998046;28;20053;-76
2023/08/02 09:25:07;;;;;;;6.82;3.10;;;;;;;;;;5009761;28;20046;-76
2023/08/02 09:27:33;;;;;;;6.68;3.65;;;;;;;;;;5002861;28;20052;-77
2023/08/02 09:30:00;;;;;;;5.47;2.50;;;;;;;;;;5004931;28;20054;-77
2023/08/02 09:32:27;;;;;;;6.82;2.78;;;;;;;;;;5004821;28;20048;-77
2023/08/02 09:34:55;;;;;;;5.28;2.90;;;;;;;;;;5002345;28;20137;-77
2023/08/02 09:37:32;;;;;;;5.50;2.58;;;;;;;;;;5004329;28;20044;-77
2023/08/02 09:39:58;;;;;;;7.13;3.95;;;;;;;;;;4998288;28;20050;-77
2023/08/02 09:42:26;;;;;;;6.95;2.97;;;;;;;;;;5007443;28;20073;-78
2023/08/02 09:44:54;;;;;;;6.10;3.38;;;;;;;;;;5009291;28;20532;-77
2023/08/02 09:47:21;;;;;;;7.65;3.17;;;;;;;;;;5009102;28;20074;-78
2023/08/02 09:50:03;;;;;;;8.20;4.72;;;;;;;;;;5009486;28;20408;-78
2023/08/02 09:52:31;;;;;;;7.13;4.40;;;;;;;;;;5006990;28;20104;-77
2023/08/02 09:54:58;;;;;;;6.35;2.83;;;;;;;;;;5008126;28;20077;-77
2023/08/02 09:57:27;;;;;;;5.85;2.60;;;;;;;;;;5007548;28;20077;-77
2023/08/02 09:59:55;;;;;;;5.30;2.20;;;;;;;;;;5004739;28;20053;-77
2023/08/02 10:02:25;;;;;;;6.05;3.53;;;;;;;;;;5003226;28;20074;-77
2023/08/02 10:04:56;;;;;;;5.90;2.93;;;;;;;;;;5004481;28;20048;-77
2023/08/02 10:07:28;;;;;;;5.25;2.90;;;;;;;;;;5007757;28;20416;-77
2023/08/02 10:10:00;;;;;;;5.10;2.72;;;;;;;;;;5005645;28;20054;-77
2023/08/02 10:12:28;;;;;;;5.35;3.15;;;;;;;;;;5005589;28;20056;-78
2023/08/02 10:14:57;;;;;;;4.78;2.70;;;;;;;;;;5008613;28;20261;-77
2023/08/02 10:17:25;;;;;;;5.72;2.83;;;;;;;;;;5008994;28;20118;-78
2023/08/02 10:19:52;;;;;;;5.13;2.53;;;;;;;;;;4999415;28;20046;-77
2023/08/02 10:22:19;;;;;;;5.90;2.63;;;;;;;;;;5003590;28;20131;-77
2023/08/02 10:24:46;;;;;;;4.53;2.42;;;;;;;;;;5009680;28;20136;-78
2023/08/02 10:27:15;;;;;;;5.18;2.35;;;;;;;;;;5008190;28;20463;-77
2023/08/02 10:29:42;;;;;;;4.68;2.40;;;;;;;;;;5001688;28;20053;-77
2023/08/02 10:32:13;;;;;;;5.25;2.70;;;;;;;;;;5002765;28;20046;-78
2023/08/02 10:34:51;;;;;;;5.07;2.30;;;;;;;;;;4996785;28;20054;-76
2023/08/02 10:37:19;;;;;;;5.07;2.72;;;;;;;;;;5000670;28;20511;-77
2023/08/02 10:39:55;;;;;;;4.88;2.60;;;;;;;;;;5001335;28;20077;-77
2023/08/02 10:42:25;;;;;;;5.97;2.95;;;;;;;;;;4998903;28;20046;-77
2023/08/02 10:45:19;;;;;;;;;;;;;;;;;;5008848;28;20054;-79
2023/08/02 10:47:45;;;;;;;5.35;2.92;;;;;;;;;;4967479;28;19928;-76
2023/08/02 10:50:44;;;;;;;6.10;3.17;;;;;;;;;;5002627;28;20416;-74
2023/08/02 10:53:11;;;;;;;6.30;2.95;;;;;;;;;;5001076;28;20049;-79
2023/08/02 10:56:08;;;;;;;4.82;2.90;;;;;;;;;;5008034;28;20128;-77
2023/08/02 10:58:50;;;;;;;5.22;2.88;;;;;;;;;;5007293;28;20050;-77
2023/08/02 11:01:17;;;;;;;5.72;2.60;;;;;;;;;;5006058;28;20564;-77
2023/08/02 11:03:44;;;;;;;6.38;3.05;;;;;;;;;;5009003;28;20334;-76
2023/08/02 11:06:27;;;;;;;5.85;2.30;;;;;;;;;;5009670;28;20130;-77
2023/08/02 11:08:53;;;;;;;7.65;3.13;;;;;;;;;;5013395;28;20421;-81
2023/08/02 11:11:35;;;;;;;34.58;16.20;;;;;;;;;;5015589;28;20048;-81
2023/08/02 11:14:04;;;;;;;32.85;12.27;;;;;;;;;;5022119;28;20094;-81
2023/08/02 11:16:31;;;;;;;19.02;8.85;;;;;;;;;;5021063;28;20045;-80
2023/08/02 11:18:59;;;;;;;68.10;28.13;;;;;;;;;;5009330;28;20485;-78
2023/08/02 11:21:25;;;;;;;27.15;12.13;;;;;;;;;;5008696;28;20041;-77
2023/08/02 11:24:01;;;;;;;24.67;11.00;;;;;;;;;;5005437;28;20042;-77
2023/08/02 11:26:27;;;;;;;17.92;7.72;;;;;;;;;;5007524;28;20125;-77
2023/08/02 11:28:54;;;;;;;16.20;7.25;;;;;;;;;;5000915;28;20046;-77
2023/08/02 11:31:25;;;;;;;11.80;5.32;;;;;;;;;;5008413;28;20045;-77
2023/08/02 11:33:52;;;;;;;14.30;5.97;;;;;;;;;;5008477;28;20052;-79
2023/08/02 11:36:19;;;;;;;9.40;4.53;;;;;;;;;;5011880;28;20065;-75
2023/08/02 11:38:45;;;;;;;12.55;5.75;;;;;;;;;;5013412;28;20421;-77
2023/08/02 11:41:17;;;;;;;6.60;3.53;;;;;;;;;;5013591;28;20133;-77
2023/08/02 11:43:44;;;;;;;6.95;3.60;;;;;;;;;;5012740;28;20092;-77
2023/08/02 11:46:16;;;;;;;9.82;4.38;;;;;;;;;;5013051;28;20423;-77
2023/08/02 11:48:43;;;;;;;5.53;2.97;;;;;;;;;;5012745;28;20133;-78
2023/08/02 11:51:11;;;;;;;10.35;4.03;;;;;;;;;;5012230;28;20100;-77
2023/08/02 11:53:48;;;;;;;8.15;3.55;;;;;;;;;;5004583;28;20046;-77
2023/08/02 11:56:14;;;;;;;6.30;3.53;;;;;;;;;;5025781;22;20072;-75
2023/08/02 11:58:42;;;;;;;7.97;3.30;;;;;;;;;;5011179;28;20133;-75
2023/08/02 12:01:09;;;;;;;4.82;2.95;;;;;;;;;;5012365;28;20046;-75
2023/08/02 12:03:36;;;;;;;7.78;3.15;;;;;;;;;;5011940;28;20037;-76
2023/08/02 12:06:04;;;;;;;5.65;2.85;;;;;;;;;;5011376;28;20125;-76
2023/08/02 12:08:30;;;;;;;7.05;3.30;;;;;;;;;;5001771;28;20044;-75
2023/08/02 12:10:57;;;;;;;5.45;2.80;;;;;;;;;;5010544;28;20053;-75
2023/08/02 12:13:24;;;;;;;5.43;2.25;;;;;;;;;;5010996;28;20053;-75
2023/08/02 12:16:01;;;;;;;5.57;2.42;;;;;;;;;;5010559;28;20508;-75
2023/08/02 12:18:27;;;;;;;5.70;2.50;;;;;;;;;;5005471;28;20046;-74
2023/08/02 12:20:54;;;;;;;6.10;2.95;;;;;;;;;;5005075;28;20086;-74
2023/08/02 12:23:32;;;;;;;5.13;2.65;;;;;;;;;;5004435;28;20042;-74
2023/08/02 12:25:59;;;;;;;5.88;2.60;;;;;;;;;;5006066;28;20563;-75
2023/08/02 12:28:26;;;;;;;4.25;2.25;;;;;;;;;;5004552;28;20084;-75
2023/08/02 12:31:03;;;;;;;6.22;2.50;;;;;;;;;;5003149;28;20235;-75
2023/08/02 12:33:31;;;;;;;3.33;1.80;;;;;;;;;;5003860;28;20512;-75
2023/08/02 12:35:57;;;;;;;4.90;2.28;;;;;;;;;;5008216;28;20046;-75
2023/08/02 12:38:28;;;;;;;5.32;2.35;;;;;;;;;;5010336;28;20061;-75
2023/08/02 12:40:57;;;;;;;4.75;2.25;;;;;;;;;;5009923;28;20099;-74
2023/08/02 12:43:24;;;;;;;5.05;2.28;;;;;;;;;;5010617;28;20068;-75
2023/08/02 12:45:50;;;;;;;3.97;1.67;;;;;;;;;;5004532;28;20555;-75
2023/08/02 12:48:17;;;;;;;3.35;1.88;;;;;;;;;;5006581;28;20045;-75
2023/08/02 12:50:44;;;;;;;3.25;1.92;;;;;;;;;;5009742;28;20551;-75
2023/08/02 12:53:10;;;;;;;5.28;2.17;;;;;;;;;;5007257;28;20156;-74
2023/08/02 12:55:37;;;;;;;4.32;1.58;;;;;;;;;;5009087;28;20045;-75
2023/08/02 12:58:05;;;;;;;5.53;2.10;;;;;;;;;;5009617;28;20137;-75
2023/08/02 13:00:32;;;;;;;3.88;2.38;;;;;;;;;;5009534;28;20196;-75
2023/08/02 13:02:58;;;;;;;4.35;2.13;;;;;;;;;;5009778;28;21109;-75
2023/08/02 13:05:25;;;;;;;3.88;1.77;;;;;;;;;;5005959;28;20411;-74
2023/08/02 13:07:51;;;;;;;3.17;1.73;;;;;;;;;;5009385;28;20527;-75
2023/08/02 13:10:18;;;;;;;2.97;1.70;;;;;;;;;;5009132;28;20490;-75
2023/08/02 13:12:44;;;;;;;2.88;1.40;;;;;;;;;;5007219;28;20523;-75
2023/08/02 13:15:12;;;;;;;4.03;2.13;;;;;;;;;;5001907;28;20042;-74
2023/08/02 13:17:41;;;;;;;6.78;2.00;;;;;;;;;;5005559;28;20037;-75
2023/08/02 13:20:09;;;;;;;3.25;1.65;;;;;;;;;;5007064;28;20103;-74
2023/08/02 13:22:36;;;;;;;4.30;1.85;;;;;;;;;;5009112;28;20493;-75
2023/08/02 13:25:03;;;;;;;2.83;1.65;;;;;;;;;;5008879;28;20081;-75
2023/08/02 13:27:32;;;;;;;3.55;1.75;;;;;;;;;;5009533;28;20057;-75
2023/08/02 13:29:59;;;;;;;3.30;2.00;;;;;;;;;;5011633;28;20077;-79
2023/08/02 13:32:28;;;;;;;3.08;1.60;;;;;;;;;;5004021;28;20141;-78
2023/08/02 13:34:55;;;;;;;9.63;7.03;;;;;;;;;;4998481;28;20050;-77
2023/08/02 13:37:22;;;;;;;5.20;3.53;;;;;;;;;;5008855;28;20049;-77
2023/08/02 13:39:48;;;;;;;4.05;2.42;;;;;;;;;;5006961;28;20104;-76
2023/08/02 13:42:15;;;;;;;3.53;1.80;;;;;;;;;;5006082;28;20310;-77
2023/08/02 13:44:42;;;;;;;5.20;2.40;;;;;;;;;;5003882;28;20522;-76
2023/08/02 13:47:08;;;;;;;3.40;2.15;;;;;;;;;;5009401;28;20045;-77
2023/08/02 13:49:36;;;;;;;4.30;2.65;;;;;;;;;;5008305;28;20137;-76
2023/08/02 13:52:03;;;;;;;3.70;2.00;;;;;;;;;;5009321;28;20046;-76
2023/08/02 13:54:29;;;;;;;3.55;1.80;;;;;;;;;;5009336;28;20049;-77
2023/08/02 13:56:56;;;;;;;3.53;1.80;;;;;;;;;;5007418;28;20141;-77
2023/08/02 13:59:22;;;;;;;4.30;1.75;;;;;;;;;;5005835;28;20129;-76
2023/08/02 14:01:49;;;;;;;4.90;1.85;;;;;;;;;;5008859;28;20044;-77
2023/08/02 14:04:15;;;;;;;3.90;1.90;;;;;;;;;;5008868;28;20140;-74
2023/08/02 14:06:43;;;;;;;3.13;1.80;;;;;;;;;;5008713;28;20073;-76
2023/08/02 14:09:10;;;;;;;4.55;2.30;;;;;;;;;;5008865;28;20054;-75
2023/08/02 14:11:36;;;;;;;4.25;1.77;;;;;;;;;;5008447;28;20435;-76
2023/08/02 14:14:05;;;;;;;3.40;1.90;;;;;;;;;;5005164;28;20050;-76
2023/08/02 14:16:32;;;;;;;3.10;1.90;;;;;;;;;;5008544;28;20487;-77
2023/08/02 14:18:58;;;;;;;3.53;1.70;;;;;;;;;;5008360;28;20511;-77
2023/08/02 14:21:25;;;;;;;3.10;1.65;;;;;;;;;;5008293;28;20327;-76
2023/08/02 14:23:53;;;;;;;3.30;1.98;;;;;;;;;;5008498;28;20054;-75
2023/08/02 14:26:20;;;;;;;3.05;1.85;;;;;;;;;;5001378;28;20154;-78
2023/08/02 14:28:47;;;;;;;2.75;1.45;;;;;;;;;;5008216;28;20115;-76
2023/08/02 14:31:13;;;;;;;3.83;1.70;;;;;;;;;;5006786;28;20046;-76
2023/08/02 14:33:40;;;;;;;3.47;1.75;;;;;;;;;;5002469;28;20049;-77
2023/08/02 14:36:06;;;;;;;2.47;1.50;;;;;;;;;;5006459;28;20046;-76
2023/08/02 14:38:33;;;;;;;2.40;1.33;;;;;;;;;;5008580;28;20049;-76
2023/08/02 14:41:01;;;;;;;3.20;1.58;;;;;;;;;;5003252;28;20057;-77
2023/08/02 14:43:28;;;;;;;2.88;1.55;;;;;;;;;;5008373;28;20042;-77
2023/08/02 14:45:54;;;;;;;2.83;1.60;;;;;;;;;;5007737;28;20477;-76